• Join FlightAware (Why Join?)
  • Login
  • US Flag 
07:54AM EST


 

Airport Tracker/Info


-or-


 

Live Flight TrackerFlight Track Log ✈ ASQ5301 ✈ 26-Jul-2013 ✈ KMGM - KATL

Flight Track Log - Related Links

Times and Time Zones

All times are in EDT time to prevent confusion due to time zone crossing. See the ASQ5301 flight status page for this flight to view local times or setup timezone preferences in your user account.

Time Position Orientation Groundspeed Altitude Reporting Facility
EDT Latitude Longitude Course Direction KTS MPH feet Rate Location/Type
08:33PM 32.3839 -86.3878 55° Northeast 239 275 4,900  Level Atlanta Center
08:34PM 32.4292 -86.3128 54° Northeast 295 339 7,200 2,280 Climbing Atlanta Center
08:35PM 32.4744 -86.2325 56° Northeast 300 345 9,500 1,740 Climbing Atlanta Center
08:36PM 32.5217 -86.1500 56° Northeast 300 345 10,700 1,080 Climbing Atlanta Center
08:37PM 32.5627 -85.9512 55° Northeast  Level FlightAware Approximate
08:37PM 32.5817 -86.0553 53° Northeast 319 367 11,700  Level Atlanta Center
08:38PM 32.6063 -85.8785 55° Northeast  Level FlightAware Approximate
08:38PM 32.6603 -85.9781 40° Northeast 341 392 12,900  Level Atlanta Center
08:39PM 32.7328 -85.8808 48° Northeast 366 421 13,700 780 Climbing Atlanta Center
08:40PM 32.7992 -85.7589 57° Northeast 386 444 14,500 960 Climbing Atlanta Center
08:41PM 32.8592 -85.6486 57° Northeast 392 451 15,700 900 Climbing Atlanta Center
08:42PM 32.9169 -85.5358 59° Northeast 392 451 16,400 600 Climbing Atlanta Center
08:43PM 32.9786 -85.4206 57° Northeast 403 464 17,000 300 Climbing Atlanta Center
08:44PM 33.0406 -85.3025 58° Northeast 408 470 17,000 -420 Level Atlanta Center
08:45PM 33.0917 -85.2067 58° Northeast 396 456 16,200 -2,160 Descending Atlanta Center
08:46PM 33.1511 -85.0958 57° Northeast 396 456 12,700 -2,160 Descending Atlanta Center
08:47PM 33.2081 -85.0094 52° Northeast 357 411 11,900 -1,500 Descending Atlanta Center
08:48PM 33.2608 -84.9331 50° Northeast 312 359 9,700 -1,980 Descending Atlanta Center
08:49PM 33.3156 -84.8592 48° Northeast 298 343 8,000 -1,500 Descending Atlanta Center
08:50PM 33.3847 -84.8250 22° Northeast 257 296 6,700 -1,440 Descending Atlanta Center
08:51PM 33.4578 -84.8331 355° North 246 283 5,200 -1,500 Descending Atlanta Center
08:52PM 33.5267 -84.8364 358° North 251 289 3,800 -1,140 Descending Atlanta Center
08:53PM 33.5853 -84.7919 32° Northeast 238 274 3,000 -420 Descending Atlanta Center
08:54PM 33.6086 -84.7247 67° East 212 244 3,000  Level Atlanta Center
08:56PM 33.6167 -84.5667 86° East 194 223 3,000 -300 Level Atlanta TRACON
08:57PM 33.6167 -84.5167 90° East 165 190 2,000 -900 Descending Atlanta TRACON
08:58PM 33.6167 -84.4667 90° East 153 176 1,300 -720 Descending Atlanta TRACON
09:00PM 33.6333 -84.4167 73° East  Level FlightAware Approximate
09:07PM 33.6367 -84.4279 73° East  Level Estimated
09:08PM 33.6367 -84.4279 73° East  Level Estimated